createdAt,value
2023-02-03T00:00:47.582Z,974.44
2023-02-03T00:01:47.597Z,974.52
2023-02-03T00:02:47.511Z,974.45
2023-02-03T00:03:47.409Z,974.46
2023-02-03T00:04:47.350Z,974.44
2023-02-03T00:05:47.339Z,974.35
2023-02-03T00:06:47.255Z,974.35
2023-02-03T00:07:47.178Z,974.38
2023-02-03T00:08:47.130Z,974.36
2023-02-03T00:09:47.063Z,974.37
2023-02-03T00:10:47.049Z,974.32
2023-02-03T00:11:46.945Z,974.33
2023-02-03T00:12:46.904Z,974.36
2023-02-03T00:13:46.835Z,974.33
2023-02-03T00:14:46.785Z,974.33
2023-02-03T00:15:46.728Z,974.36
2023-02-03T00:16:46.692Z,974.37
2023-02-03T00:17:46.622Z,974.41
2023-02-03T00:18:46.618Z,974.43
2023-02-03T00:19:46.491Z,974.33
2023-02-03T00:20:46.426Z,974.42
2023-02-03T00:21:46.380Z,974.42
2023-02-03T00:22:46.335Z,974.41
2023-02-03T00:23:46.262Z,974.35
2023-02-03T00:24:46.196Z,974.36
2023-02-03T00:25:46.145Z,974.33
2023-02-03T00:26:46.079Z,974.32
2023-02-03T00:27:46.051Z,974.25
2023-02-03T00:28:45.975Z,974.25
2023-02-03T00:29:45.911Z,974.24
2023-02-03T00:30:45.856Z,974.26
2023-02-03T00:31:45.901Z,974.34
2023-02-03T00:32:45.751Z,974.26
2023-02-03T00:33:45.689Z,974.33
2023-02-03T00:34:45.628Z,974.36
2023-02-03T00:35:45.582Z,974.37
2023-02-03T00:36:45.506Z,974.32
2023-02-03T00:37:45.458Z,974.38
2023-02-03T00:38:45.407Z,974.40
2023-02-03T00:39:45.338Z,974.36
2023-02-03T00:40:45.353Z,974.43
2023-02-03T00:41:45.221Z,974.40
2023-02-03T00:42:45.175Z,974.36
2023-02-03T00:43:45.120Z,974.41
2023-02-03T00:44:45.041Z,974.34
2023-02-03T00:45:45.037Z,974.37
2023-02-03T00:46:44.940Z,974.37
2023-02-03T00:47:44.867Z,974.34
2023-02-03T00:48:44.818Z,974.23
2023-02-03T00:49:44.758Z,974.23
2023-02-03T00:50:44.708Z,974.13
2023-02-03T00:51:44.642Z,974.15
2023-02-03T00:52:44.577Z,974.08
2023-02-03T00:53:44.543Z,974.06
2023-02-03T00:54:44.487Z,974.09
2023-02-03T00:55:44.433Z,974.05
2023-02-03T00:56:44.354Z,974.14
2023-02-03T00:57:44.299Z,974.07
2023-02-03T00:58:44.231Z,974.13
2023-02-03T00:59:44.188Z,974.00
2023-02-03T01:00:44.122Z,974.01
2023-02-03T01:01:44.063Z,973.99
2023-02-03T01:02:44.064Z,973.94
2023-02-03T01:03:43.960Z,973.95
2023-02-03T01:04:43.911Z,973.89
2023-02-03T01:05:43.850Z,973.89
2023-02-03T01:06:43.775Z,973.88
2023-02-03T01:07:43.725Z,973.83
2023-02-03T01:08:43.651Z,973.80
2023-02-03T01:09:43.613Z,973.77
2023-02-03T01:10:43.538Z,973.72
2023-02-03T01:11:43.485Z,973.79
2023-02-03T01:12:43.417Z,973.79
2023-02-03T01:13:43.375Z,973.82
2023-02-03T01:14:43.319Z,973.80
2023-02-03T01:15:43.247Z,973.94
2023-02-03T01:16:43.343Z,973.86
2023-02-03T01:17:43.146Z,973.92
2023-02-03T01:18:43.087Z,973.93
2023-02-03T01:19:43.017Z,973.87
2023-02-03T01:20:42.955Z,973.85
2023-02-03T01:21:42.925Z,973.73
2023-02-03T01:22:42.842Z,973.70
2023-02-03T01:23:42.798Z,973.68
2023-02-03T01:24:42.746Z,973.68
2023-02-03T01:25:42.672Z,973.70
2023-02-03T01:26:42.623Z,973.72
2023-02-03T01:27:42.585Z,973.88
2023-02-03T01:28:42.503Z,973.76
2023-02-03T01:29:42.445Z,973.85
2023-02-03T01:30:42.507Z,973.75
2023-02-03T01:31:42.576Z,973.85
2023-02-03T01:32:42.270Z,973.86
2023-02-03T01:33:42.218Z,973.85
2023-02-03T01:34:42.154Z,973.82
2023-02-03T01:35:42.100Z,973.77
2023-02-03T01:36:42.044Z,973.75
2023-02-03T01:37:41.977Z,973.73
2023-02-03T01:38:41.927Z,973.76
2023-02-03T01:39:41.861Z,973.81
2023-02-03T01:40:41.828Z,973.77
2023-02-03T01:41:41.748Z,973.73
2023-02-03T01:42:41.684Z,973.72
2023-02-03T01:43:41.638Z,973.70
2023-02-03T01:44:41.588Z,973.68
2023-02-03T01:45:41.568Z,973.64
2023-02-03T01:46:41.479Z,973.70
2023-02-03T01:47:41.404Z,973.74
2023-02-03T01:48:41.345Z,973.71
2023-02-03T01:49:41.288Z,973.75
2023-02-03T01:50:41.235Z,973.74
2023-02-03T01:51:41.186Z,973.74
2023-02-03T01:52:41.103Z,973.79
2023-02-03T01:53:41.048Z,973.76
2023-02-03T01:54:41.000Z,973.73
2023-02-03T01:55:40.943Z,973.76
2023-02-03T01:56:40.879Z,973.74
2023-02-03T01:57:40.824Z,973.73
2023-02-03T01:58:40.758Z,973.72
2023-02-03T01:59:40.718Z,973.69
2023-02-03T02:00:40.669Z,973.70
2023-02-03T02:01:40.655Z,973.62
2023-02-03T02:02:40.593Z,973.65
2023-02-03T02:03:40.485Z,973.66
2023-02-03T02:04:40.408Z,973.71
2023-02-03T02:05:40.376Z,973.62
2023-02-03T02:06:40.316Z,973.69
2023-02-03T02:07:40.261Z,973.61
2023-02-03T02:08:40.198Z,973.48
2023-02-03T02:09:40.137Z,973.46
2023-02-03T02:10:40.095Z,973.52
2023-02-03T02:11:40.012Z,973.51
2023-02-03T02:12:39.965Z,973.49
2023-02-03T02:13:39.897Z,973.48
2023-02-03T02:14:39.840Z,973.55
2023-02-03T02:15:39.825Z,973.47
2023-02-03T02:16:39.726Z,973.48
2023-02-03T02:17:39.661Z,973.55
2023-02-03T02:18:39.600Z,973.48
2023-02-03T02:19:39.553Z,973.51
2023-02-03T02:20:39.511Z,973.47
2023-02-03T02:21:39.467Z,973.54
2023-02-03T02:22:39.378Z,973.54
2023-02-03T02:23:39.323Z,973.58
2023-02-03T02:24:39.260Z,973.57
2023-02-03T02:25:39.214Z,973.53
2023-02-03T02:26:39.136Z,973.52
2023-02-03T02:27:39.148Z,973.48
2023-02-03T02:28:39.032Z,973.51
2023-02-03T02:29:39.006Z,973.47
2023-02-03T02:30:39.053Z,973.42
2023-02-03T02:31:39.001Z,973.46
2023-02-03T02:32:38.794Z,973.45
2023-02-03T02:33:38.753Z,973.49
2023-02-03T02:34:38.678Z,973.57
2023-02-03T02:35:38.618Z,973.61
2023-02-03T02:36:38.572Z,973.58
2023-02-03T02:37:38.512Z,973.66
2023-02-03T02:38:38.449Z,973.65
2023-02-03T02:39:38.382Z,973.57
2023-02-03T02:40:38.333Z,973.55
2023-02-03T02:41:38.271Z,973.54
2023-02-03T02:42:38.232Z,973.44
2023-02-03T02:43:38.153Z,973.44
2023-02-03T02:44:38.089Z,973.47
2023-02-03T02:45:38.041Z,973.51
2023-02-03T02:46:38.064Z,973.57
2023-02-03T02:47:37.928Z,973.57
2023-02-03T02:48:37.868Z,973.58
2023-02-03T02:49:37.813Z,973.63
2023-02-03T02:50:37.744Z,973.57
2023-02-03T02:51:37.709Z,973.59
2023-02-03T02:52:37.628Z,973.55
2023-02-03T02:53:37.570Z,973.50
2023-02-03T02:54:37.531Z,973.47
2023-02-03T02:55:37.481Z,973.52
2023-02-03T02:56:37.415Z,973.62
2023-02-03T02:57:37.367Z,973.71
2023-02-03T02:58:37.291Z,973.72
2023-02-03T02:59:37.223Z,973.73
2023-02-03T03:00:37.187Z,973.64
2023-02-03T03:01:37.152Z,973.66
2023-02-03T03:02:37.056Z,973.57
2023-02-03T03:03:37.020Z,973.63
2023-02-03T03:04:36.958Z,973.67
2023-02-03T03:05:36.876Z,973.61
2023-02-03T03:06:36.816Z,973.62
2023-02-03T03:07:36.768Z,973.67
2023-02-03T03:08:36.734Z,973.58
2023-02-03T03:09:36.665Z,973.55
2023-02-03T03:10:36.585Z,973.58
2023-02-03T03:11:36.535Z,973.54
2023-02-03T03:12:36.478Z,973.54
2023-02-03T03:13:36.431Z,973.51
2023-02-03T03:14:36.381Z,973.50
2023-02-03T03:15:36.352Z,973.45
2023-02-03T03:16:36.242Z,973.38
2023-02-03T03:17:36.185Z,973.43
2023-02-03T03:18:36.127Z,973.38
2023-02-03T03:19:36.086Z,973.41
2023-02-03T03:20:36.002Z,973.46
2023-02-03T03:21:35.948Z,973.42
2023-02-03T03:22:35.898Z,973.44
2023-02-03T03:23:35.832Z,973.36
2023-02-03T03:24:35.842Z,973.38
2023-02-03T03:25:35.738Z,973.24
2023-02-03T03:26:35.677Z,973.32
2023-02-03T03:27:35.713Z,973.35
2023-02-03T03:28:35.563Z,973.28
2023-02-03T03:29:35.506Z,973.27
2023-02-03T03:30:35.496Z,973.21
2023-02-03T03:31:35.599Z,973.18
2023-02-03T03:32:35.306Z,973.08
2023-02-03T03:33:35.270Z,972.99
2023-02-03T03:34:35.203Z,973.05
2023-02-03T03:35:35.150Z,973.03
2023-02-03T03:36:35.085Z,973.14
2023-02-03T03:37:35.034Z,973.17
2023-02-03T03:38:34.973Z,973.22
2023-02-03T03:39:34.927Z,973.22
2023-02-03T03:40:34.842Z,973.15
2023-02-03T03:41:34.793Z,973.08
2023-02-03T03:42:34.742Z,973.12
2023-02-03T03:43:34.682Z,973.05
2023-02-03T03:44:34.630Z,973.06
2023-02-03T03:45:34.575Z,973.04
2023-02-03T03:46:34.596Z,972.93
2023-02-03T03:47:34.468Z,972.96
2023-02-03T03:48:34.385Z,973.06
2023-02-03T03:49:34.323Z,973.02
2023-02-03T03:50:34.278Z,973.03
2023-02-03T03:51:34.220Z,973.01
2023-02-03T03:52:34.148Z,972.97
2023-02-03T03:53:34.112Z,972.85
2023-02-03T03:54:34.043Z,972.87
2023-02-03T03:55:34.013Z,972.87
2023-02-03T03:56:33.916Z,972.88
2023-02-03T03:57:33.865Z,972.80
2023-02-03T03:58:33.821Z,972.88
2023-02-03T03:59:33.750Z,972.83
2023-02-03T04:00:33.692Z,972.82
2023-02-03T04:01:33.689Z,972.80
2023-02-03T04:02:33.690Z,972.87
2023-02-03T04:03:33.512Z,972.83
2023-02-03T04:04:33.475Z,973.07
2023-02-03T04:05:33.402Z,973.14
2023-02-03T04:06:33.346Z,973.20
2023-02-03T04:07:33.295Z,973.30
2023-02-03T04:08:33.246Z,973.33
2023-02-03T04:09:33.171Z,973.27
2023-02-03T04:10:33.158Z,973.37
2023-02-03T04:11:33.046Z,973.29
2023-02-03T04:12:32.997Z,973.28
2023-02-03T04:13:32.955Z,973.30
2023-02-03T04:14:32.889Z,973.32
2023-02-03T04:15:32.813Z,973.27
2023-02-03T04:16:32.839Z,973.28
2023-02-03T04:17:32.706Z,973.27
2023-02-03T04:18:32.652Z,973.28
2023-02-03T04:19:32.609Z,973.27
2023-02-03T04:20:32.548Z,973.30
2023-02-03T04:21:32.481Z,973.26
2023-02-03T04:22:32.413Z,973.28
2023-02-03T04:23:32.362Z,973.19
2023-02-03T04:24:32.311Z,973.21
2023-02-03T04:25:32.258Z,973.24
2023-02-03T04:26:32.185Z,973.17
2023-02-03T04:27:32.126Z,973.23
2023-02-03T04:28:32.075Z,973.29
2023-02-03T04:29:32.006Z,973.40
2023-02-03T04:30:31.974Z,973.45
2023-02-03T04:31:31.928Z,973.43
2023-02-03T04:32:31.828Z,973.43
2023-02-03T04:33:31.770Z,973.39
2023-02-03T04:34:31.710Z,973.34
2023-02-03T04:35:31.675Z,973.37
2023-02-03T04:36:31.597Z,973.36
2023-02-03T04:37:31.546Z,973.35
2023-02-03T04:38:31.486Z,973.45
2023-02-03T04:39:31.449Z,973.48
2023-02-03T04:40:33.367Z,973.43
2023-02-03T04:41:31.301Z,973.41
2023-02-03T04:42:31.286Z,973.41
2023-02-03T04:43:31.188Z,973.42
2023-02-03T04:44:31.136Z,973.38
2023-02-03T04:45:31.108Z,973.29
2023-02-03T04:46:31.014Z,973.34
2023-02-03T04:47:30.958Z,973.30
2023-02-03T04:48:30.908Z,973.30
2023-02-03T04:49:30.841Z,973.34
2023-02-03T04:50:30.811Z,973.32
2023-02-03T04:51:30.731Z,973.28
2023-02-03T04:52:30.668Z,973.28
2023-02-03T04:53:30.633Z,973.26
2023-02-03T04:54:30.552Z,973.24
2023-02-03T04:55:30.509Z,973.24
2023-02-03T04:56:30.443Z,973.22
2023-02-03T04:57:30.391Z,973.28
2023-02-03T04:58:30.325Z,973.28
2023-02-03T04:59:30.276Z,973.21
2023-02-03T05:00:30.622Z,973.19
2023-02-03T05:01:30.149Z,973.13
2023-02-03T05:02:30.084Z,973.16
2023-02-03T05:03:30.120Z,973.13
2023-02-03T05:04:29.973Z,973.05
2023-02-03T05:05:29.913Z,972.99
2023-02-03T05:06:29.869Z,972.98
2023-02-03T05:07:29.812Z,972.92
2023-02-03T05:08:29.746Z,972.96
2023-02-03T05:09:29.697Z,972.91
2023-02-03T05:10:29.796Z,972.88
2023-02-03T05:11:29.619Z,972.86
2023-02-03T05:12:29.533Z,972.94
2023-02-03T05:13:29.474Z,972.79
2023-02-03T05:14:29.398Z,972.81
2023-02-03T05:15:29.333Z,972.77
2023-02-03T05:16:29.346Z,972.66
2023-02-03T05:17:29.248Z,972.63
2023-02-03T05:18:29.168Z,972.67
2023-02-03T05:19:29.125Z,972.74
2023-02-03T05:20:29.352Z,972.72
2023-02-03T05:21:28.983Z,972.74
2023-02-03T05:22:28.957Z,972.76
2023-02-03T05:23:28.874Z,972.82
2023-02-03T05:24:28.812Z,972.84
2023-02-03T05:25:28.756Z,972.87
2023-02-03T05:26:28.702Z,972.85
2023-02-03T05:27:28.653Z,972.91
2023-02-03T05:28:28.606Z,972.85
2023-02-03T05:29:28.527Z,972.83
2023-02-03T05:30:28.891Z,972.83
2023-02-03T05:31:28.456Z,972.82
2023-02-03T05:32:28.349Z,972.85
2023-02-03T05:33:28.312Z,972.83
2023-02-03T05:34:28.236Z,972.80
2023-02-03T05:35:28.173Z,972.75
2023-02-03T05:36:28.113Z,972.73
2023-02-03T05:37:28.057Z,972.75
2023-02-03T05:38:28.010Z,972.72
2023-02-03T05:39:27.957Z,972.72
2023-02-03T05:40:28.105Z,972.66
2023-02-03T05:41:27.842Z,972.67
2023-02-03T05:42:27.771Z,972.72
2023-02-03T05:43:27.718Z,972.80
2023-02-03T05:44:27.661Z,972.76
2023-02-03T05:45:27.647Z,972.77
2023-02-03T05:46:27.559Z,972.71
2023-02-03T05:47:27.481Z,972.67
2023-02-03T05:48:27.429Z,972.74
2023-02-03T05:49:27.380Z,972.76
2023-02-03T05:50:27.618Z,972.81
2023-02-03T05:51:27.279Z,972.78
2023-02-03T05:52:27.197Z,972.77
2023-02-03T05:53:27.136Z,972.73
2023-02-03T05:54:27.083Z,972.70
2023-02-03T05:55:27.050Z,972.69
2023-02-03T05:56:26.957Z,972.69
2023-02-03T05:57:26.902Z,972.65
2023-02-03T05:58:26.860Z,972.54
2023-02-03T05:59:26.797Z,972.62
2023-02-03T06:00:27.139Z,972.56
2023-02-03T06:01:26.667Z,972.62
2023-02-03T06:02:26.621Z,972.57
2023-02-03T06:03:26.616Z,972.62
2023-02-03T06:04:26.514Z,972.70
2023-02-03T06:05:26.450Z,972.64
2023-02-03T06:06:26.402Z,972.71
2023-02-03T06:07:26.342Z,972.69
2023-02-03T06:08:26.266Z,972.68
2023-02-03T06:09:26.202Z,972.52
2023-02-03T06:10:26.562Z,972.41
2023-02-03T06:11:26.090Z,972.30
2023-02-03T06:12:28.207Z,972.21
2023-02-03T06:13:25.981Z,972.31
2023-02-03T06:14:25.931Z,972.48
2023-02-03T06:15:25.865Z,972.38
2023-02-03T06:16:25.862Z,972.32
2023-02-03T06:17:25.762Z,972.36
2023-02-03T06:18:25.708Z,972.51
2023-02-03T06:19:25.623Z,972.50
2023-02-03T06:20:25.796Z,972.60
2023-02-03T06:21:25.533Z,972.62
2023-02-03T06:22:25.447Z,972.69
2023-02-03T06:23:25.389Z,972.59
2023-02-03T06:24:25.345Z,972.64
2023-02-03T06:25:25.282Z,972.69
2023-02-03T06:26:25.234Z,972.69
2023-02-03T06:27:25.172Z,972.61
2023-02-03T06:28:25.110Z,972.63
2023-02-03T06:29:25.069Z,972.70
2023-02-03T06:30:25.067Z,972.71
2023-02-03T06:31:25.039Z,972.63
2023-02-03T06:32:24.884Z,972.66
2023-02-03T06:33:24.814Z,972.74
2023-02-03T06:34:24.752Z,972.76
2023-02-03T06:35:24.699Z,972.78
2023-02-03T06:36:24.657Z,972.68
2023-02-03T06:37:24.942Z,972.62
2023-02-03T06:38:24.540Z,972.66
2023-02-03T06:39:24.473Z,972.71
2023-02-03T06:40:24.631Z,972.75
2023-02-03T06:41:24.371Z,972.79
2023-02-03T06:42:24.321Z,972.86
2023-02-03T06:43:24.230Z,972.79
2023-02-03T06:44:24.180Z,972.74
2023-02-03T06:45:24.125Z,972.92
2023-02-03T06:46:24.111Z,972.91
2023-02-03T06:47:24.025Z,972.91
2023-02-03T06:48:23.962Z,972.98
2023-02-03T06:49:23.892Z,972.88
2023-02-03T06:50:23.834Z,972.92
2023-02-03T06:51:23.780Z,972.80
2023-02-03T06:52:23.724Z,972.75
2023-02-03T06:53:23.676Z,972.74
2023-02-03T06:54:23.609Z,972.79
2023-02-03T06:55:23.553Z,972.77
2023-02-03T06:56:23.492Z,972.73
2023-02-03T06:57:23.448Z,972.76
2023-02-03T06:58:23.377Z,972.75
2023-02-03T06:59:23.311Z,972.75
2023-02-03T07:00:23.281Z,972.71
2023-02-03T07:01:23.199Z,972.73
2023-02-03T07:02:23.176Z,972.69
2023-02-03T07:03:23.104Z,972.82
2023-02-03T07:04:23.013Z,972.76
2023-02-03T07:05:22.974Z,972.80
2023-02-03T07:06:22.964Z,972.77
2023-02-03T07:07:22.848Z,972.71
2023-02-03T07:08:22.792Z,972.68
2023-02-03T07:09:22.754Z,972.60
2023-02-03T07:10:22.661Z,972.63
2023-02-03T07:11:22.614Z,972.61
2023-02-03T07:12:22.571Z,972.55
2023-02-03T07:13:22.518Z,972.59
2023-02-03T07:14:22.467Z,972.56
2023-02-03T07:15:22.386Z,972.48
2023-02-03T07:16:22.350Z,972.56
2023-02-03T07:17:22.259Z,972.59
2023-02-03T07:18:45.487Z,972.57
2023-02-03T07:19:22.143Z,972.62
2023-02-03T07:20:22.136Z,972.60
2023-02-03T07:21:22.028Z,972.51
2023-02-03T07:22:22.014Z,972.55
2023-02-03T07:23:21.913Z,972.49
2023-02-03T07:24:21.861Z,972.60
2023-02-03T07:25:21.846Z,972.61
2023-02-03T07:26:21.748Z,972.58
2023-02-03T07:27:21.703Z,972.57
2023-02-03T07:28:21.655Z,972.54
2023-02-03T07:29:21.585Z,972.59
2023-02-03T07:30:21.522Z,972.73
2023-02-03T07:31:21.585Z,972.57
2023-02-03T07:32:21.404Z,972.54
2023-02-03T07:33:21.345Z,972.48
2023-02-03T07:34:21.287Z,972.53
2023-02-03T07:35:21.306Z,972.45
2023-02-03T07:36:21.196Z,972.49
2023-02-03T07:37:21.111Z,972.61
2023-02-03T07:38:21.052Z,972.53
2023-02-03T07:39:21.003Z,972.50
2023-02-03T07:40:20.948Z,972.50
2023-02-03T07:41:20.869Z,972.46
2023-02-03T07:42:20.810Z,972.49
2023-02-03T07:43:20.754Z,972.57
2023-02-03T07:44:20.712Z,972.62
2023-02-03T07:45:20.667Z,972.67
2023-02-03T07:46:20.620Z,972.66
2023-02-03T07:47:20.529Z,972.71
2023-02-03T07:48:20.462Z,972.71
2023-02-03T07:49:20.418Z,972.89
2023-02-03T07:50:20.345Z,972.72
2023-02-03T07:51:20.298Z,972.67
2023-02-03T07:52:21.921Z,972.74
2023-02-03T07:53:20.174Z,972.79
2023-02-03T07:54:20.124Z,972.79
2023-02-03T07:55:20.058Z,972.73
2023-02-03T07:56:20.000Z,972.79
2023-02-03T07:57:19.945Z,972.75
2023-02-03T07:58:19.898Z,972.89
2023-02-03T07:59:19.841Z,972.74
2023-02-03T08:00:19.784Z,972.78
2023-02-03T08:01:19.725Z,972.74
2023-02-03T08:02:19.669Z,972.66
2023-02-03T08:03:19.615Z,972.67
2023-02-03T08:04:19.535Z,972.62
2023-02-03T08:05:19.480Z,972.71
2023-02-03T08:06:19.417Z,972.63
2023-02-03T08:07:19.376Z,972.62
2023-02-03T08:08:19.318Z,972.57
2023-02-03T08:09:19.244Z,972.58
2023-02-03T08:10:19.214Z,972.48
2023-02-03T08:11:19.159Z,972.51
2023-02-03T08:12:19.088Z,972.52
2023-02-03T08:13:19.021Z,972.54
2023-02-03T08:14:18.986Z,972.49
2023-02-03T08:15:18.913Z,972.42
2023-02-03T08:16:18.886Z,972.49
2023-02-03T08:17:18.792Z,972.50
2023-02-03T08:18:18.724Z,972.48
2023-02-03T08:19:18.666Z,972.49
2023-02-03T08:20:18.620Z,972.33
2023-02-03T08:21:18.559Z,972.51
2023-02-03T08:22:18.489Z,972.51
2023-02-03T08:23:18.444Z,972.43
2023-02-03T08:24:18.377Z,972.39
2023-02-03T08:25:19.632Z,972.42
2023-02-03T08:26:18.283Z,972.44
2023-02-03T08:27:18.210Z,972.37
2023-02-03T08:28:18.228Z,972.44
2023-02-03T08:29:18.085Z,972.48
2023-02-03T08:30:18.066Z,972.54
2023-02-03T08:31:18.133Z,972.52
2023-02-03T08:32:18.031Z,972.55
2023-02-03T08:33:17.879Z,972.63
2023-02-03T08:34:17.796Z,972.58
2023-02-03T08:35:17.765Z,972.50
2023-02-03T08:36:17.685Z,972.56
2023-02-03T08:37:17.619Z,972.48
2023-02-03T08:38:17.597Z,972.57
2023-02-03T08:39:17.523Z,972.59
2023-02-03T08:40:17.485Z,972.50
2023-02-03T08:41:17.393Z,972.52
2023-02-03T08:42:17.330Z,972.49
2023-02-03T08:43:17.286Z,972.55
2023-02-03T08:44:17.216Z,972.41
2023-02-03T08:45:17.158Z,972.49
2023-02-03T08:46:17.113Z,972.37
2023-02-03T08:47:17.054Z,972.46
2023-02-03T08:48:17.011Z,972.33
2023-02-03T08:49:16.950Z,972.43
2023-02-03T08:50:16.869Z,972.39
2023-02-03T08:51:16.887Z,972.40
2023-02-03T08:52:18.820Z,972.42
2023-02-03T08:53:16.726Z,972.43
2023-02-03T08:54:16.636Z,972.47
2023-02-03T08:55:16.681Z,972.35
2023-02-03T08:56:16.544Z,972.38
2023-02-03T08:57:16.486Z,972.36
2023-02-03T08:58:16.507Z,972.26
2023-02-03T08:59:16.347Z,972.31
2023-02-03T09:00:16.286Z,972.24
2023-02-03T09:01:16.376Z,972.21
2023-02-03T09:02:16.209Z,972.28
2023-02-03T09:03:16.115Z,972.20
2023-02-03T09:04:16.072Z,972.16
2023-02-03T09:05:16.091Z,972.31
2023-02-03T09:06:15.959Z,972.30
2023-02-03T09:07:15.886Z,972.43
2023-02-03T09:08:16.420Z,972.27
2023-02-03T09:09:15.773Z,972.35
2023-02-03T09:10:15.731Z,972.39
2023-02-03T09:11:15.669Z,972.35
2023-02-03T09:12:15.591Z,972.38
2023-02-03T09:13:15.563Z,972.29
2023-02-03T09:14:15.479Z,972.38
2023-02-03T09:15:15.438Z,972.31
2023-02-03T09:16:15.397Z,972.32
2023-02-03T09:17:15.312Z,972.29
2023-02-03T09:18:15.249Z,972.37
2023-02-03T09:19:15.187Z,972.45
2023-02-03T09:20:15.276Z,972.42
2023-02-03T09:21:27.447Z,972.53
2023-02-03T09:22:15.032Z,972.37
2023-02-03T09:23:14.983Z,972.37
2023-02-03T09:24:14.900Z,972.37
2023-02-03T09:25:14.865Z,972.43
2023-02-03T09:26:14.781Z,972.40
2023-02-03T09:27:14.737Z,972.31
2023-02-03T09:28:14.709Z,972.31
2023-02-03T09:29:14.662Z,972.22
2023-02-03T09:30:14.582Z,972.26
2023-02-03T09:31:14.702Z,972.22
2023-02-03T09:32:15.772Z,972.20
2023-02-03T09:33:14.389Z,972.35
2023-02-03T09:34:14.339Z,972.31
2023-02-03T09:35:14.274Z,972.28
2023-02-03T09:36:14.215Z,972.14
2023-02-03T09:37:14.173Z,972.31
2023-02-03T09:38:14.090Z,972.35
2023-02-03T09:39:14.053Z,972.20
2023-02-03T09:40:13.991Z,972.27
2023-02-03T09:41:13.922Z,972.26
2023-02-03T09:42:13.859Z,972.29
2023-02-03T09:43:13.835Z,972.29
2023-02-03T09:44:13.750Z,972.23
2023-02-03T09:45:13.697Z,972.31
2023-02-03T09:46:13.762Z,972.25
2023-02-03T09:47:13.596Z,972.24
2023-02-03T09:48:13.523Z,972.28
2023-02-03T09:49:13.459Z,972.41
2023-02-03T09:50:13.393Z,972.35
2023-02-03T09:51:13.356Z,972.33
2023-02-03T09:52:13.284Z,972.26
2023-02-03T09:53:13.231Z,972.19
2023-02-03T09:54:13.161Z,972.31
2023-02-03T09:55:13.115Z,972.22
2023-02-03T09:56:13.072Z,972.16
2023-02-03T09:57:12.988Z,972.18
2023-02-03T09:58:12.941Z,972.15
2023-02-03T09:59:12.878Z,972.10
2023-02-03T10:00:12.819Z,972.11
2023-02-03T10:01:12.804Z,972.16
2023-02-03T10:02:12.746Z,972.16
2023-02-03T10:03:12.645Z,972.15
2023-02-03T10:04:12.594Z,972.15
2023-02-03T10:05:12.532Z,972.13
2023-02-03T10:06:12.481Z,972.09
2023-02-03T10:07:12.432Z,972.08
2023-02-03T10:08:12.352Z,972.07
2023-02-03T10:09:12.303Z,972.07
2023-02-03T10:10:12.247Z,972.14
2023-02-03T10:11:12.216Z,972.12
2023-02-03T10:12:12.120Z,972.04
2023-02-03T10:13:12.070Z,972.04
2023-02-03T10:14:12.039Z,972.04
2023-02-03T10:15:11.947Z,972.00
2023-02-03T10:16:11.895Z,972.00
2023-02-03T10:17:11.968Z,971.99
2023-02-03T10:18:11.856Z,972.00
2023-02-03T10:19:11.731Z,972.06
2023-02-03T10:20:11.659Z,971.99
2023-02-03T10:21:11.612Z,971.94
2023-02-03T10:22:11.543Z,971.81
2023-02-03T10:23:11.512Z,971.87
2023-02-03T10:24:11.451Z,971.95
2023-02-03T10:25:11.374Z,971.91
2023-02-03T10:26:11.317Z,971.88
2023-02-03T10:27:11.267Z,971.89
2023-02-03T10:28:11.290Z,971.83
2023-02-03T10:29:11.158Z,971.92
2023-02-03T10:30:11.106Z,972.07
2023-02-03T10:31:11.171Z,971.95
2023-02-03T10:32:11.101Z,972.03
2023-02-03T10:33:10.917Z,972.06
2023-02-03T10:34:10.884Z,972.04
2023-02-03T10:35:10.820Z,972.00
2023-02-03T10:36:10.728Z,971.96
2023-02-03T10:37:10.677Z,972.02
2023-02-03T10:38:10.634Z,972.03
2023-02-03T10:39:10.574Z,971.98
2023-02-03T10:40:10.500Z,971.93
2023-02-03T10:41:10.524Z,971.95
2023-02-03T10:42:10.386Z,971.94
2023-02-03T10:43:10.326Z,971.80
2023-02-03T10:44:10.278Z,971.97
2023-02-03T10:45:10.234Z,971.89
2023-02-03T10:46:10.201Z,971.85
2023-02-03T10:47:10.099Z,971.88
2023-02-03T10:48:10.044Z,971.83
2023-02-03T10:49:09.986Z,971.79
2023-02-03T10:50:09.924Z,971.77
2023-02-03T10:51:09.890Z,971.71
2023-02-03T10:52:09.808Z,971.73
2023-02-03T10:53:09.766Z,971.64
2023-02-03T10:54:09.704Z,971.72
2023-02-03T10:55:09.841Z,971.68
2023-02-03T10:56:09.592Z,971.73
2023-02-03T10:57:09.558Z,971.83
2023-02-03T10:58:09.467Z,971.79
2023-02-03T10:59:09.415Z,971.77
2023-02-03T11:00:09.353Z,971.80
2023-02-03T11:01:09.332Z,971.79
2023-02-03T11:02:09.325Z,971.77
2023-02-03T11:03:09.177Z,971.82
2023-02-03T11:04:09.120Z,971.80
2023-02-03T11:05:09.066Z,971.92
2023-02-03T11:06:09.026Z,971.72
2023-02-03T11:07:08.997Z,971.83
2023-02-03T11:08:08.888Z,971.81
2023-02-03T11:09:08.833Z,971.75
2023-02-03T11:10:08.778Z,971.77
2023-02-03T11:11:08.720Z,971.87
2023-02-03T11:12:08.664Z,971.77
2023-02-03T11:13:08.593Z,971.84
2023-02-03T11:14:08.539Z,971.83
2023-02-03T11:15:08.492Z,971.84
2023-02-03T11:16:08.505Z,971.87
2023-02-03T11:17:08.397Z,971.85
2023-02-03T11:18:08.304Z,971.80
2023-02-03T11:19:08.271Z,971.81
2023-02-03T11:20:08.190Z,971.83
2023-02-03T11:21:08.137Z,971.89
2023-02-03T11:22:08.086Z,971.84
2023-02-03T11:23:08.019Z,971.80
2023-02-03T11:24:07.984Z,971.88
2023-02-03T11:25:07.899Z,972.01
2023-02-03T11:26:07.843Z,971.82
2023-02-03T11:27:07.798Z,971.79
2023-02-03T11:28:07.779Z,971.79
2023-02-03T11:29:07.677Z,971.74
2023-02-03T11:30:07.643Z,971.74
2023-02-03T11:31:07.592Z,971.77
2023-02-03T11:32:07.597Z,971.71
2023-02-03T11:33:07.436Z,971.64
2023-02-03T11:34:07.405Z,971.57
2023-02-03T11:35:07.333Z,971.66
2023-02-03T11:36:07.268Z,971.50
2023-02-03T11:37:07.210Z,971.49
2023-02-03T11:38:07.175Z,971.29
2023-02-03T11:39:07.094Z,971.32
2023-02-03T11:40:07.063Z,971.36
2023-02-03T11:41:06.980Z,971.36
2023-02-03T11:42:06.932Z,971.39
2023-02-03T11:43:06.879Z,971.45
2023-02-03T11:44:06.835Z,971.35
2023-02-03T11:45:06.746Z,971.43
2023-02-03T11:46:06.714Z,971.33
2023-02-03T11:47:06.640Z,971.43
2023-02-03T11:48:06.590Z,971.33
2023-02-03T11:49:06.527Z,971.40
2023-02-03T11:50:06.468Z,971.36
2023-02-03T11:51:06.406Z,971.45
2023-02-03T11:52:06.362Z,971.32
2023-02-03T11:53:06.286Z,971.32
2023-02-03T11:54:06.226Z,971.33
2023-02-03T11:55:06.185Z,971.37
2023-02-03T11:56:06.124Z,971.39
2023-02-03T11:57:06.063Z,971.39
2023-02-03T11:58:06.015Z,971.34
2023-02-03T11:59:05.949Z,971.27
2023-02-03T12:00:05.882Z,971.31
2023-02-03T12:01:05.877Z,971.29
2023-02-03T12:02:05.779Z,971.30
2023-02-03T12:03:05.728Z,971.27
2023-02-03T12:04:05.711Z,971.27
2023-02-03T12:05:05.605Z,971.25
2023-02-03T12:06:05.558Z,971.26
2023-02-03T12:07:05.488Z,971.20
2023-02-03T12:08:05.431Z,971.18
2023-02-03T12:09:05.370Z,971.18
2023-02-03T12:10:05.317Z,971.16
2023-02-03T12:11:05.272Z,971.08
2023-02-03T12:12:05.203Z,971.07
2023-02-03T12:13:05.144Z,971.08
2023-02-03T12:14:05.074Z,971.11
2023-02-03T12:15:05.041Z,971.08
2023-02-03T12:16:05.016Z,971.15
2023-02-03T12:17:04.937Z,971.20
2023-02-03T12:18:04.859Z,971.17
2023-02-03T12:19:04.802Z,971.11
2023-02-03T12:20:04.736Z,971.08
2023-02-03T12:21:04.688Z,971.10
2023-02-03T12:22:04.615Z,971.07
2023-02-03T12:23:04.584Z,971.03
2023-02-03T12:24:04.509Z,971.07
2023-02-03T12:25:04.456Z,971.20
2023-02-03T12:26:04.383Z,971.23
2023-02-03T12:27:04.351Z,971.13
2023-02-03T12:28:04.310Z,971.23